Flight Track Log - Related Links

Times and Time Zones

All times are in EDT time to prevent confusion due to time zone crossing. See the N52712 flight status page for this flight to view local times or setup timezone preferences in your user account.

Time Position Orientation Groundspeed Altitude Reporting Facility
EDT Latitude Longitude Course Direction KTS MPH feet Rate Location/Type
Thu 01:30:49 PM 42.4667 -71.3000 270° West 74 85 1,000  Level KA90
Thu 01:31:25 PM 42.4667 -71.3167 270° West 68 78 1,600 765 Climbing KA90
Thu 01:32:31 PM 42.4667 -71.3333 270° West 74 85 2,300 571 Climbing KA90
Thu 01:33:31 PM 42.5000 -71.3333 360° North 88 101 2,800 550 Climbing KA90
Thu 01:34:31 PM 42.5167 -71.3167 36° Northeast 97 112 3,400 105 Climbing KA90
Thu 01:35:25 PM 42.5500 -71.3167 360° North 110 127 3,000 -211 Descending KA90
Thu 01:36:25 PM 42.5833 -71.3167 360° North 103 119 3,000 50 Level KA90
Thu 01:37:25 PM 42.6000 -71.3167 360° North 98 113 3,100 100 Climbing KA90
Thu 01:38:25 PM 42.6333 -71.3167 360° North 104 120 3,200 -100 Climbing KA90
Thu 01:39:25 PM 42.6667 -71.3333 340° North 108 124 2,900  Descending KA90
Thu 01:40:25 PM 42.7000 -71.3333 360° North 100 115 3,200 50 Climbing KA90
Thu 01:41:25 PM 42.7167 -71.3333 360° North 111 128 3,000 -50 Descending KA90
Thu 01:42:25 PM 42.7500 -71.3333 360° North 115 132 3,100  Climbing KA90
Thu 01:43:20 PM 42.7833 -71.3500 340° North 110 127 3,000 -53 Descending KA90
Thu 01:44:19 PM 42.8167 -71.3500 360° North 99 114 3,000 48 Level KA90
Thu 01:45:25 PM 42.8333 -71.3667 324° Northwest 113 130 3,100 48 Climbing KA90
Thu 01:46:25 PM 42.8667 -71.3667 360° North 107 123 3,100  Level KA90
Thu 01:47:31 PM 42.8833 -71.3667 360° North 94 108 3,100 -100 Level KA90
Thu 01:48:25 PM 42.9000 -71.3333 56° Northeast 102 117 2,900 -368 Descending KA90
Thu 01:49:25 PM 42.8833 -71.3333 180° South 96 110 2,400 -496 Descending KA90
Thu 01:50:26 PM 42.8667 -71.3667 236° Southwest 97 112 1,900 -200 Descending KA90
Thu 01:51:25 PM 42.8500 -71.4000 236° Southwest 95 109 2,000 -403 Climbing KA90
Thu 01:52:25 PM 42.8333 -71.4167 216° Southwest 88 101 1,100 -526 Descending KA90
Thu 01:53:19 PM 42.8333 -71.4500 270° West 84 97 1,000 -100 Descending KA90
Thu 01:54:25 PM 42.8167 -71.4667 216° Southwest 84 97 900 -47 Descending KA90
Thu 01:55:26 PM 42.8000 -71.5000 236° Southwest 84 97 900 200 Level KA90
Thu 01:56:25 PM 42.7833 -71.5167 216° Southwest 90 104 1,300 600 Climbing KA90
Thu 01:57:26 PM 42.7833 -71.5333 270° West 88 101 2,100 789 Climbing KA90
Thu 01:58:19 PM 42.8000 -71.5167 36° Northeast 112 129 2,800 450 Climbing KA90
Thu 01:59:26 PM 42.8167 -71.4667 66° East 112 129 3,000 149 Climbing KA90
Thu 02:00:20 PM 42.8333 -71.4333 56° Northeast 122 140 3,100 53 Climbing KA90
Thu 02:01:20 PM 42.8500 -71.4000 56° Northeast 118 136 3,100 -100 Level KA90
Thu 02:02:20 PM 42.8667 -71.3667 56° Northeast 118 136 2,900 -200 Descending KA90

Login

Don't have an account? Register now (free) for customized features, flight alerts, and more!